createdAt,value
2023-05-10T00:00:11.629Z,10.15
2023-05-10T00:03:05.993Z,10.04
2023-05-10T00:05:35.289Z,10.06
2023-05-10T00:08:04.092Z,10.06
2023-05-10T00:10:33.216Z,10.04
2023-05-10T00:13:02.117Z,9.97
2023-05-10T00:15:31.544Z,9.95
2023-05-10T00:18:00.398Z,9.65
2023-05-10T00:20:31.039Z,9.74
2023-05-10T00:23:00.078Z,9.74
2023-05-10T00:25:29.185Z,9.32
2023-05-10T00:27:58.368Z,9.55
2023-05-10T00:30:27.504Z,9.59
2023-05-10T00:32:57.466Z,9.58
2023-05-10T00:35:27.133Z,9.54
2023-05-10T00:37:57.559Z,9.49
2023-05-10T00:40:26.752Z,9.40
2023-05-10T00:43:00.422Z,9.35
2023-05-10T00:45:29.772Z,9.30
2023-05-10T00:48:00.833Z,9.24
2023-05-10T00:50:30.623Z,9.18
2023-05-10T00:53:01.796Z,9.06
2023-05-10T00:55:31.027Z,9.06
2023-05-10T00:57:59.856Z,8.92
2023-05-10T01:00:29.035Z,8.93
2023-05-10T01:02:58.324Z,8.94
2023-05-10T01:05:28.417Z,8.86
2023-05-10T01:07:58.259Z,8.77
2023-05-10T01:10:28.738Z,8.68
2023-05-10T01:12:57.969Z,8.58
2023-05-10T01:15:27.408Z,8.55
2023-05-10T01:17:56.284Z,8.50
2023-05-10T01:20:26.770Z,8.37
2023-05-10T01:23:13.709Z,8.33
2023-05-10T01:25:56.736Z,8.13
2023-05-10T01:28:41.221Z,8.03
2023-05-10T01:31:24.808Z,8.09
2023-05-10T01:33:57.942Z,8.00
2023-05-10T01:36:32.663Z,8.03
2023-05-10T01:39:04.672Z,7.97
2023-05-10T01:41:46.795Z,7.93
2023-05-10T01:44:20.171Z,7.87
2023-05-10T01:46:53.921Z,7.85
2023-05-10T01:49:28.062Z,7.80
2023-05-10T01:52:01.619Z,7.75
2023-05-10T01:54:31.290Z,7.69
2023-05-10T01:57:02.276Z,7.68
2023-05-10T01:59:37.262Z,7.65
2023-05-10T02:02:07.166Z,7.60
2023-05-10T02:04:39.596Z,7.47
2023-05-10T02:07:08.922Z,7.45
2023-05-10T02:09:39.106Z,7.42
2023-05-10T02:12:09.503Z,7.39
2023-05-10T02:14:39.143Z,7.36
2023-05-10T02:17:08.944Z,7.33
2023-05-10T02:19:40.615Z,7.26
2023-05-10T02:22:11.152Z,7.22
2023-05-10T02:24:40.702Z,7.14
2023-05-10T02:27:10.788Z,7.10
2023-05-10T02:29:40.427Z,7.04
2023-05-10T02:32:12.077Z,6.97
2023-05-10T02:34:43.200Z,7.00
2023-05-10T02:37:13.050Z,6.97
2023-05-10T02:39:44.851Z,6.97
2023-05-10T02:42:17.999Z,6.90
2023-05-10T02:44:49.258Z,6.83
2023-05-10T02:47:18.622Z,6.76
2023-05-10T02:49:49.317Z,6.69
2023-05-10T02:52:21.704Z,6.64
2023-05-10T02:54:52.437Z,6.60
2023-05-10T02:57:24.718Z,6.53
2023-05-10T02:59:53.614Z,6.47
2023-05-10T03:02:23.035Z,6.31
2023-05-10T03:04:53.338Z,6.47
2023-05-10T03:07:22.608Z,6.47
2023-05-10T03:09:51.639Z,6.48
2023-05-10T03:12:26.887Z,6.48
2023-05-10T03:14:59.923Z,6.50
2023-05-10T03:17:32.543Z,6.53
2023-05-10T03:20:05.990Z,6.53
2023-05-10T03:22:39.237Z,6.54
2023-05-10T03:25:10.485Z,6.57
2023-05-10T03:27:42.129Z,6.60
2023-05-10T03:30:12.509Z,6.63
2023-05-10T03:32:41.780Z,6.65
2023-05-10T03:35:14.199Z,6.69
2023-05-10T03:37:43.962Z,6.73
2023-05-10T03:40:12.986Z,6.76
2023-05-10T03:42:44.643Z,6.79
2023-05-10T03:45:14.020Z,6.85
2023-05-10T03:47:43.401Z,6.90
2023-05-10T03:50:14.028Z,6.96
2023-05-10T03:52:43.611Z,6.94
2023-05-10T03:55:12.858Z,7.04
2023-05-10T03:57:42.148Z,7.12
2023-05-10T04:00:11.533Z,7.15
2023-05-10T04:02:44.507Z,7.18
2023-05-10T04:05:21.117Z,7.28
2023-05-10T04:07:50.948Z,7.35
2023-05-10T04:10:19.900Z,7.43
2023-05-10T04:12:49.125Z,7.48
2023-05-10T04:15:18.099Z,7.51
2023-05-10T04:17:47.360Z,7.59
2023-05-10T04:20:16.599Z,7.63
2023-05-10T04:22:47.306Z,7.66
2023-05-10T04:25:16.172Z,7.68
2023-05-10T04:27:45.239Z,7.75
2023-05-10T04:30:14.522Z,7.80
2023-05-10T04:32:43.760Z,7.83
2023-05-10T04:35:12.634Z,7.83
2023-05-10T04:37:41.750Z,7.90
2023-05-10T04:40:12.581Z,7.85
2023-05-10T04:42:42.206Z,7.96
2023-05-10T04:45:11.655Z,8.01
2023-05-10T04:47:40.797Z,8.05
2023-05-10T04:50:10.545Z,8.11
2023-05-10T04:52:39.640Z,8.20
2023-05-10T04:55:10.677Z,8.19
2023-05-10T04:57:41.370Z,8.32
2023-05-10T05:00:10.940Z,8.37
2023-05-10T05:02:40.150Z,8.45
2023-05-10T05:05:09.359Z,8.50
2023-05-10T05:07:38.544Z,8.52
2023-05-10T05:10:08.012Z,8.53
2023-05-10T05:12:37.274Z,8.55
2023-05-10T05:15:09.926Z,8.66
2023-05-10T05:17:39.201Z,8.74
2023-05-10T05:20:09.086Z,8.81
2023-05-10T05:22:38.375Z,8.87
2023-05-10T05:25:07.818Z,8.87
2023-05-10T05:27:36.988Z,8.97
2023-05-10T05:30:08.763Z,9.01
2023-05-10T05:32:38.014Z,9.07
2023-05-10T05:35:07.218Z,9.03
2023-05-10T05:37:36.576Z,9.15
2023-05-10T05:40:05.768Z,9.22
2023-05-10T05:42:34.984Z,9.26
2023-05-10T05:45:03.797Z,9.31
2023-05-10T05:47:34.582Z,9.35
2023-05-10T05:50:03.502Z,9.40
2023-05-10T05:52:32.630Z,9.40
2023-05-10T05:55:01.523Z,9.47
2023-05-10T05:57:30.800Z,9.50
2023-05-10T06:00:00.387Z,9.59
2023-05-10T06:02:29.539Z,9.64
2023-05-10T06:04:59.834Z,9.69
2023-05-10T06:07:29.010Z,9.73
2023-05-10T06:09:57.835Z,9.76
2023-05-10T06:12:27.000Z,9.87
2023-05-10T06:14:55.870Z,9.96
2023-05-10T06:17:25.251Z,10.08
2023-05-10T06:19:54.063Z,10.13
2023-05-10T06:22:24.751Z,10.25
2023-05-10T06:24:53.746Z,10.32
2023-05-10T06:27:23.157Z,10.46
2023-05-10T06:29:56.499Z,10.55
2023-05-10T06:32:31.513Z,10.64
2023-05-10T06:35:00.311Z,10.75
2023-05-10T06:37:30.833Z,10.82
2023-05-10T06:39:59.735Z,10.94
2023-05-10T06:42:29.172Z,11.01
2023-05-10T06:44:58.100Z,11.09
2023-05-10T06:47:27.314Z,11.20
2023-05-10T06:49:56.883Z,11.30
2023-05-10T06:52:26.031Z,11.42
2023-05-10T06:54:56.282Z,11.51
2023-05-10T06:59:59.251Z,11.73
2023-05-10T07:02:28.461Z,11.87
2023-05-10T07:04:59.489Z,12.06
2023-05-10T07:07:30.167Z,12.16
2023-05-10T07:10:00.588Z,12.27
2023-05-10T07:12:29.793Z,12.39
2023-05-10T07:14:58.644Z,12.47
2023-05-10T07:17:28.160Z,12.55
2023-05-10T07:19:57.174Z,12.66
2023-05-10T07:22:26.469Z,12.79
2023-05-10T07:24:55.666Z,12.93
2023-05-10T07:27:26.415Z,13.01
2023-05-10T07:29:55.675Z,13.09
2023-05-10T07:32:24.851Z,13.14
2023-05-10T07:34:53.999Z,13.27
2023-05-10T07:37:23.088Z,13.42
2023-05-10T07:39:51.897Z,13.53
2023-05-10T07:42:20.997Z,13.64
2023-05-10T07:44:51.173Z,13.75
2023-05-10T07:47:20.423Z,13.86
2023-05-10T07:49:49.207Z,13.95
2023-05-10T07:52:18.313Z,14.04
2023-05-10T07:54:47.398Z,14.15
2023-05-10T07:57:18.696Z,14.33
2023-05-10T07:59:48.054Z,14.39
2023-05-10T08:02:18.722Z,14.48
2023-05-10T08:04:47.771Z,14.63
2023-05-10T08:07:16.878Z,14.68
2023-05-10T08:09:45.775Z,14.64
2023-05-10T08:12:14.914Z,14.81
2023-05-10T08:14:43.739Z,14.85
2023-05-10T08:17:12.796Z,14.98
2023-05-10T08:19:43.082Z,15.18
2023-05-10T08:22:12.222Z,15.28
2023-05-10T08:24:42.995Z,15.42
2023-05-10T08:27:12.227Z,15.55
2023-05-10T08:29:49.385Z,15.76
2023-05-10T08:32:19.604Z,15.83
2023-05-10T08:34:49.758Z,15.93
2023-05-10T08:37:18.873Z,16.01
2023-05-10T08:39:48.999Z,16.11
2023-05-10T08:42:18.999Z,16.18
2023-05-10T08:44:50.240Z,16.28
2023-05-10T08:47:20.334Z,16.29
2023-05-10T08:49:52.273Z,16.31
2023-05-10T08:52:22.188Z,16.52
2023-05-10T08:54:51.353Z,16.66
2023-05-10T08:57:21.062Z,16.66
2023-05-10T08:59:50.033Z,16.89
2023-05-10T09:02:20.428Z,16.86
2023-05-10T09:04:51.194Z,16.88
2023-05-10T09:07:20.827Z,16.92
2023-05-10T09:09:50.920Z,16.96
2023-05-10T09:12:20.072Z,16.96
2023-05-10T09:14:48.956Z,16.96
2023-05-10T09:17:18.225Z,17.27
2023-05-10T09:19:47.050Z,17.27
2023-05-10T09:22:18.600Z,17.32
2023-05-10T09:24:47.403Z,17.39
2023-05-10T09:27:16.473Z,17.44
2023-05-10T09:29:46.201Z,17.49
2023-05-10T09:32:16.753Z,17.51
2023-05-10T09:34:46.022Z,17.53
2023-05-10T09:37:15.331Z,17.66
2023-05-10T09:39:45.551Z,17.58
2023-05-10T09:42:14.787Z,17.59
2023-05-10T09:44:44.510Z,17.64
2023-05-10T09:47:19.080Z,17.76
2023-05-10T09:49:51.287Z,17.95
2023-05-10T09:52:20.440Z,17.96
2023-05-10T09:54:54.985Z,18.08
2023-05-10T09:57:24.818Z,18.06
2023-05-10T09:59:55.384Z,18.07
2023-05-10T10:02:30.427Z,18.16
2023-05-10T10:04:59.481Z,18.30
2023-05-10T10:07:29.870Z,18.37
2023-05-10T10:10:01.012Z,18.34
2023-05-10T10:12:30.387Z,18.39
2023-05-10T10:14:59.355Z,18.44
2023-05-10T10:17:30.536Z,18.52
2023-05-10T10:19:59.591Z,18.50
2023-05-10T10:22:28.785Z,18.49
2023-05-10T10:24:57.683Z,18.67
2023-05-10T10:27:31.714Z,18.70
2023-05-10T10:30:05.254Z,18.73
2023-05-10T10:32:40.116Z,18.75
2023-05-10T10:35:10.666Z,18.86
2023-05-10T10:37:46.657Z,18.94
2023-05-10T10:40:25.150Z,18.96
2023-05-10T10:42:55.863Z,19.01
2023-05-10T10:45:25.559Z,19.01
2023-05-10T10:48:13.480Z,19.10
2023-05-10T10:50:48.529Z,19.21
2023-05-10T10:53:17.918Z,19.25
2023-05-10T10:55:50.201Z,19.34
2023-05-10T10:58:33.285Z,19.34
2023-05-10T11:01:12.385Z,19.21
2023-05-10T11:03:41.711Z,19.25
2023-05-10T11:06:10.656Z,19.38
2023-05-10T11:08:44.977Z,19.34
2023-05-10T11:11:16.403Z,19.47
2023-05-10T11:13:50.962Z,19.55
2023-05-10T11:16:21.606Z,19.62
2023-05-10T11:19:02.659Z,19.80
2023-05-10T11:21:32.504Z,19.78
2023-05-10T11:24:06.934Z,19.78
2023-05-10T11:26:36.858Z,19.98
2023-05-10T11:29:07.385Z,20.04
2023-05-10T11:31:36.852Z,20.02
2023-05-10T11:34:06.085Z,20.12
2023-05-10T11:36:36.131Z,20.15
2023-05-10T11:39:05.746Z,20.16
2023-05-10T11:41:34.795Z,20.18
2023-05-10T11:44:03.991Z,20.27
2023-05-10T11:46:34.337Z,20.25
2023-05-10T11:49:05.711Z,20.32
2023-05-10T11:51:35.580Z,20.36
2023-05-10T11:54:30.269Z,20.41
2023-05-10T11:56:59.114Z,20.42
2023-05-10T11:59:28.202Z,20.52
2023-05-10T12:01:58.684Z,20.58
2023-05-10T12:04:28.925Z,20.57
2023-05-10T12:06:57.859Z,20.61
2023-05-10T12:09:39.701Z,20.54
2023-05-10T12:12:12.066Z,20.57
2023-05-10T12:14:41.112Z,20.40
2023-05-10T12:17:15.333Z,20.45
2023-05-10T12:19:44.942Z,20.56
2023-05-10T12:22:13.797Z,20.56
2023-05-10T12:24:42.904Z,20.58
2023-05-10T12:30:01.382Z,20.66
2023-05-10T12:32:40.993Z,20.72
2023-05-10T12:35:10.815Z,20.76
2023-05-10T12:37:40.659Z,20.74
2023-05-10T12:40:11.967Z,20.82
2023-05-10T12:42:41.052Z,20.84
2023-05-10T12:45:10.574Z,20.94
2023-05-10T12:47:43.694Z,20.94
2023-05-10T12:50:13.214Z,20.96
2023-05-10T12:52:42.016Z,20.99
2023-05-10T12:55:11.183Z,21.06
2023-05-10T12:57:39.925Z,21.14
2023-05-10T13:00:10.125Z,21.04
2023-05-10T13:02:40.652Z,21.05
2023-05-10T13:05:09.996Z,20.99
2023-05-10T13:07:38.771Z,21.00
2023-05-10T13:10:08.645Z,21.00
2023-05-10T13:12:37.582Z,20.92
2023-05-10T13:15:07.752Z,20.96
2023-05-10T13:17:36.610Z,20.85
2023-05-10T13:20:07.707Z,20.82
2023-05-10T13:22:40.528Z,20.87
2023-05-10T13:25:10.479Z,20.93
2023-05-10T13:27:39.278Z,20.83
2023-05-10T13:30:09.006Z,20.90
2023-05-10T13:32:37.936Z,20.78
2023-05-10T13:35:09.022Z,20.74
2023-05-10T13:37:38.334Z,20.76
2023-05-10T13:40:08.084Z,20.79
2023-05-10T13:42:36.937Z,20.85
2023-05-10T13:45:06.613Z,20.75
2023-05-10T13:47:35.537Z,20.65
2023-05-10T13:50:04.761Z,20.62
2023-05-10T13:52:35.055Z,20.54
2023-05-10T13:55:04.260Z,20.50
2023-05-10T13:57:33.223Z,20.54
2023-05-10T14:00:02.695Z,20.45
2023-05-10T14:02:36.804Z,20.38
2023-05-10T14:05:06.443Z,20.22
2023-05-10T14:07:36.601Z,20.26
2023-05-10T14:10:06.174Z,20.06
2023-05-10T14:12:35.054Z,20.00
2023-05-10T14:15:06.859Z,20.10
2023-05-10T14:17:35.787Z,20.06
2023-05-10T14:20:05.551Z,19.99
2023-05-10T14:22:34.417Z,20.01
2023-05-10T14:25:05.128Z,20.00
2023-05-10T14:27:33.963Z,19.84
2023-05-10T14:30:03.429Z,19.98
2023-05-10T14:32:33.208Z,19.96
2023-05-10T14:35:02.994Z,19.94
2023-05-10T14:37:32.124Z,19.96
2023-05-10T14:40:01.419Z,19.94
2023-05-10T14:42:32.356Z,19.95
2023-05-10T14:45:01.494Z,19.87
2023-05-10T14:47:31.912Z,19.81
2023-05-10T14:50:01.318Z,19.72
2023-05-10T14:52:30.873Z,19.80
2023-05-10T14:55:02.434Z,19.81
2023-05-10T14:57:33.367Z,19.71
2023-05-10T15:00:02.708Z,19.80
2023-05-10T15:02:32.813Z,19.82
2023-05-10T15:05:02.827Z,19.79
2023-05-10T15:07:32.772Z,19.73
2023-05-10T15:10:01.837Z,19.72
2023-05-10T15:12:32.070Z,19.66
2023-05-10T15:15:01.249Z,19.73
2023-05-10T15:17:30.112Z,19.72
2023-05-10T15:19:59.267Z,20.92
2023-05-10T15:22:29.312Z,22.24
2023-05-10T15:24:58.394Z,23.13
2023-05-10T15:27:27.472Z,23.72
2023-05-10T15:29:58.021Z,23.97
2023-05-10T15:32:26.857Z,23.90
2023-05-10T15:34:55.961Z,23.68
2023-05-10T15:37:25.492Z,23.75
2023-05-10T15:39:56.268Z,23.16
2023-05-10T15:42:26.411Z,23.30
2023-05-10T15:44:55.481Z,23.48
2023-05-10T15:47:25.666Z,23.25
2023-05-10T15:49:54.848Z,23.23
2023-05-10T15:52:23.816Z,23.17
2023-05-10T15:54:52.932Z,22.91
2023-05-10T15:57:21.789Z,22.73
2023-05-10T15:59:50.935Z,22.78
2023-05-10T16:02:19.780Z,22.83
2023-05-10T16:04:50.431Z,22.60
2023-05-10T16:07:19.283Z,22.41
2023-05-10T16:09:49.479Z,22.38
2023-05-10T16:12:18.330Z,22.11
2023-05-10T16:14:47.537Z,22.12
2023-05-10T16:17:16.466Z,21.75
2023-05-10T16:19:46.869Z,21.67
2023-05-10T16:22:17.144Z,21.81
2023-05-10T16:24:47.489Z,21.77
2023-05-10T16:27:16.402Z,21.58
2023-05-10T16:29:45.488Z,21.58
2023-05-10T16:32:14.362Z,21.47
2023-05-10T16:34:43.438Z,21.28
2023-05-10T16:37:12.392Z,21.04
2023-05-10T16:39:42.885Z,20.86
2023-05-10T16:42:11.792Z,20.68
2023-05-10T16:44:40.886Z,20.58
2023-05-10T16:47:09.749Z,20.06
2023-05-10T16:49:38.810Z,19.97
2023-05-10T16:52:07.661Z,19.84
2023-05-10T16:54:36.833Z,19.74
2023-05-10T16:57:08.586Z,19.53
2023-05-10T16:59:37.843Z,19.37
2023-05-10T17:02:06.633Z,19.11
2023-05-10T17:04:36.272Z,18.97
2023-05-10T17:07:05.150Z,18.80
2023-05-10T17:09:34.435Z,18.68
2023-05-10T17:12:04.206Z,18.41
2023-05-10T17:14:34.918Z,18.44
2023-05-10T17:17:03.860Z,18.39
2023-05-10T17:19:33.092Z,18.31
2023-05-10T17:22:02.041Z,18.14
2023-05-10T17:24:31.316Z,17.96
2023-05-10T17:27:00.701Z,18.01
2023-05-10T17:29:32.012Z,17.80
2023-05-10T17:32:02.389Z,17.57
2023-05-10T17:34:31.653Z,17.74
2023-05-10T17:37:00.850Z,17.61
2023-05-10T17:39:30.146Z,17.47
2023-05-10T17:41:59.061Z,17.34
2023-05-10T17:44:28.253Z,17.22
2023-05-10T17:46:57.039Z,17.24
2023-05-10T17:49:28.850Z,17.23
2023-05-10T17:51:57.679Z,17.12
2023-05-10T17:54:26.804Z,17.14
2023-05-10T17:56:55.740Z,17.01
2023-05-10T17:59:24.830Z,17.05
2023-05-10T18:01:53.663Z,17.05
2023-05-10T18:04:22.909Z,17.03
2023-05-10T18:07:00.780Z,16.93
2023-05-10T18:09:30.482Z,16.96
2023-05-10T18:11:59.311Z,16.93
2023-05-10T18:14:39.876Z,16.88
2023-05-10T18:17:10.380Z,16.74
2023-05-10T18:19:41.048Z,16.69
2023-05-10T18:22:11.338Z,16.61
2023-05-10T18:24:40.643Z,16.57
2023-05-10T18:27:09.614Z,16.44
2023-05-10T18:29:38.873Z,16.47
2023-05-10T18:32:07.685Z,16.44
2023-05-10T18:34:37.063Z,16.22
2023-05-10T18:37:07.734Z,16.24
2023-05-10T18:39:38.891Z,16.26
2023-05-10T18:42:08.125Z,16.19
2023-05-10T18:44:37.193Z,16.02
2023-05-10T18:47:06.064Z,15.73
2023-05-10T18:49:35.169Z,15.75
2023-05-10T18:52:03.989Z,15.79
2023-05-10T18:54:33.055Z,15.62
2023-05-10T18:57:03.775Z,15.55
2023-05-10T18:59:32.926Z,15.51
2023-05-10T19:02:01.742Z,15.39
2023-05-10T19:04:31.024Z,15.29
2023-05-10T19:06:59.907Z,15.35
2023-05-10T19:09:29.032Z,15.30
2023-05-10T19:11:58.058Z,15.26
2023-05-10T19:14:28.683Z,15.18
2023-05-10T19:16:57.544Z,15.17
2023-05-10T19:19:27.544Z,15.08
2023-05-10T19:21:56.756Z,15.05
2023-05-10T19:24:26.038Z,14.76
2023-05-10T19:26:56.309Z,14.84
2023-05-10T19:29:26.338Z,14.79
2023-05-10T19:31:56.966Z,14.68
2023-05-10T19:34:27.361Z,14.57
2023-05-10T19:36:58.148Z,14.47
2023-05-10T19:39:27.887Z,14.46
2023-05-10T19:41:56.671Z,14.39
2023-05-10T19:44:25.943Z,14.30
2023-05-10T19:46:56.135Z,14.23
2023-05-10T19:49:26.482Z,14.17
2023-05-10T19:51:55.313Z,14.12
2023-05-10T19:54:24.431Z,14.05
2023-05-10T19:56:53.282Z,13.98
2023-05-10T19:59:22.500Z,13.89
2023-05-10T20:01:51.317Z,13.83
2023-05-10T20:04:22.132Z,13.66
2023-05-10T20:06:50.946Z,13.60
2023-05-10T20:09:20.025Z,13.57
2023-05-10T20:11:49.817Z,13.45
2023-05-10T20:14:19.005Z,13.42
2023-05-10T20:16:47.939Z,13.32
2023-05-10T20:19:17.329Z,13.24
2023-05-10T20:21:47.616Z,13.08
2023-05-10T20:24:16.745Z,13.03
2023-05-10T20:26:45.566Z,12.94
2023-05-10T20:29:14.749Z,12.81
2023-05-10T20:31:43.526Z,12.72
2023-05-10T20:34:12.721Z,12.65
2023-05-10T20:36:41.509Z,12.65
2023-05-10T20:39:12.175Z,12.64
2023-05-10T20:41:40.981Z,12.59
2023-05-10T20:44:10.044Z,12.59
2023-05-10T20:46:39.008Z,12.50
2023-05-10T20:49:09.561Z,12.50
2023-05-10T20:51:38.367Z,12.49
2023-05-10T20:54:07.453Z,12.47
2023-05-10T20:56:37.728Z,12.36
2023-05-10T20:59:06.829Z,12.34
2023-05-10T21:01:35.687Z,12.26
2023-05-10T21:04:05.054Z,12.14
2023-05-10T21:06:33.873Z,12.17
2023-05-10T21:09:03.003Z,12.14
2023-05-10T21:11:32.723Z,12.02
2023-05-10T21:14:04.005Z,12.11
2023-05-10T21:16:32.983Z,12.05
2023-05-10T21:19:02.215Z,12.06
2023-05-10T21:21:31.152Z,12.01
2023-05-10T21:24:00.248Z,12.00
2023-05-10T21:26:29.085Z,11.96
2023-05-10T21:28:59.344Z,11.99
2023-05-10T21:31:29.667Z,11.93
2023-05-10T21:33:58.802Z,11.97
2023-05-10T21:36:27.954Z,11.98
2023-05-10T21:38:57.093Z,11.91
2023-05-10T21:41:25.885Z,11.95
2023-05-10T21:43:55.030Z,11.99
2023-05-10T21:46:23.916Z,11.97
2023-05-10T21:48:54.561Z,11.95
2023-05-10T21:51:23.423Z,11.99
2023-05-10T21:53:53.029Z,11.94
2023-05-10T21:56:21.879Z,11.85
2023-05-10T21:58:50.985Z,11.87
2023-05-10T22:01:19.840Z,11.88
2023-05-10T22:03:49.308Z,11.87
2023-05-10T22:06:19.568Z,11.89
2023-05-10T22:08:48.648Z,11.75
2023-05-10T22:11:17.408Z,11.80
2023-05-10T22:13:46.649Z,11.83
2023-05-10T22:16:15.675Z,11.71
2023-05-10T22:18:45.005Z,11.70
2023-05-10T22:21:13.921Z,11.47
2023-05-10T22:23:43.950Z,11.73
2023-05-10T22:26:13.067Z,11.74
2023-05-10T22:28:41.871Z,11.70
2023-05-10T22:31:11.644Z,11.65
2023-05-10T22:33:40.549Z,11.55
2023-05-10T22:36:09.835Z,11.55
2023-05-10T22:38:38.717Z,11.47
2023-05-10T22:41:09.169Z,11.42
2023-05-10T22:43:38.024Z,11.39
2023-05-10T22:46:07.087Z,11.37
2023-05-10T22:48:36.782Z,11.34
2023-05-10T22:51:05.884Z,11.19
2023-05-10T22:53:34.648Z,11.26
2023-05-10T22:56:03.825Z,11.23
2023-05-10T22:58:34.217Z,11.24
2023-05-10T23:01:03.411Z,11.26
2023-05-10T23:03:32.231Z,11.24
2023-05-10T23:06:01.391Z,11.21
2023-05-10T23:08:30.245Z,11.19
2023-05-10T23:10:59.398Z,11.15
2023-05-10T23:13:28.160Z,11.14
2023-05-10T23:15:58.839Z,11.17
2023-05-10T23:18:27.678Z,11.09
2023-05-10T23:20:56.787Z,11.06
2023-05-10T23:23:25.761Z,10.98
2023-05-10T23:25:54.899Z,10.87
2023-05-10T23:28:23.703Z,10.78
2023-05-10T23:30:55.727Z,10.69
2023-05-10T23:33:26.889Z,10.63
2023-05-10T23:35:56.050Z,10.57
2023-05-10T23:38:24.824Z,10.48
2023-05-10T23:40:54.505Z,10.41
2023-05-10T23:43:23.305Z,10.30
2023-05-10T23:45:55.883Z,10.19
2023-05-10T23:48:26.484Z,10.09
2023-05-10T23:50:55.644Z,9.97
2023-05-10T23:53:24.399Z,9.89
2023-05-10T23:55:53.664Z,9.85
2023-05-10T23:58:22.483Z,9.77
